Achupallas, Argentina
Current Conditions -  °F | °C
As of 10:00 PM on Friday 19 Dec 2014 (Local Time) from SAEZ Reporting Station
Clear Clear  
Wind Chill: 84°   Ceiling: Unl
Heat Index: 84°   Visibility: 6mi
Dew Point: 59°   Wind: 5mph
Humidity: 42%   Direction: 340°NNW
Pressure: 29.53"   Gusts: NA
Location:  35.09°S, 59.88°W
Report Text: SAEZ 200100Z 34004KT 290V010 CAVOK 29/15 Q1000
Loading
Personal Weather Stations






























Interactive Weather Map New forecast layout! Learn more

10-Day Weather Forecast

Advertisements
Track Severe Weather on mobile